
Distance (Route):
Temperature : -9.3°C
Humidity : 52.6%
Pressure : 593.6hPa| Receiver | Date | Latitude | Longitude | Direction | Speed | Altitude | Climb | Temperature | Humidity | Pressure | Voltage | Killtimer | Uptime | BKT | XDATA |
|---|---|---|---|---|---|---|---|---|---|---|---|---|---|---|---|
| SP4MAZ | 2026-09-02 13:11:43 | 52.40689 | 21.71529 | 0° | 0km/h | 26889m | 0.0m/s | -9.3°C | 52.6% | 593.6hPa | 0V | 08:11:00 | 00:00:00 | 00:00:00 | |
| SP4MAZ | 2026-09-02 13:11:23 | 52.40689 | 21.71529 | 0° | 0km/h | 26889m | 0.0m/s | -10.7°C | 39.7% | 565.5hPa | 0V | 08:11:00 | 00:00:00 | 00:00:00 | |
| SP4MAZ | 2026-09-02 13:11:03 | 52.40689 | 21.71529 | 0° | 0km/h | 26889m | 0.0m/s | -13.2°C | 35.3% | 539.5hPa | 0V | 00:00:00 | 00:00:00 | 00:00:00 | |
| SP4MAZ | 2026-09-02 13:10:41 | 52.40689 | 21.71529 | 0° | 0km/h | 26889m | 0.0m/s | -15.8°C | 24.8% | 512.2hPa | 0V | 00:00:00 | 00:00:00 | 00:00:00 | |
| SP4MAZ | 2026-09-02 13:10:12 | 52.40689 | 21.71529 | 0° | 0km/h | 26889m | 0.0m/s | -18.3°C | 12.0% | 477.2hPa | 0V | 00:00:00 | 00:00:00 | 00:00:00 | |
| SP4MAZ | 2026-09-02 13:08:46 | 52.40689 | 21.71529 | 0° | 0km/h | 26889m | 0.0m/s | -30.7°C | 20.8% | 378.5hPa | 0V | 00:00:00 | 00:00:00 | 00:00:00 | |
| SP4MAZ | 2026-09-02 13:08:08 | 52.40689 | 21.71529 | 0° | 0km/h | 26889m | 0.0m/s | -37.6°C | 26.2% | 337.1hPa | 0V | 08:14:00 | 00:00:00 | 00:00:00 | |
| SP4MAZ | 2026-09-02 13:07:36 | 52.40689 | 21.71529 | 0° | 0km/h | 26889m | 0.0m/s | -43.5°C | 33.1% | 303.7hPa | 0V | 00:00:00 | 00:00:00 | 00:00:00 | |
| SP4MAZ | 2026-09-02 13:07:12 | 52.40689 | 21.71529 | 0° | 0km/h | 26889m | 0.0m/s | -48.2°C | 32.2% | 279.2hPa | 0V | 00:00:00 | 00:00:00 | 00:00:00 | |
| SP4MAZ | 2026-09-02 13:06:51 | 52.40689 | 21.71529 | 0° | 0km/h | 26889m | 0.0m/s | -52.7°C | 36.1% | 258.0hPa | 0V | 00:00:00 | 00:00:00 | 00:00:00 | |
| SP4MAZ | 2026-09-02 13:06:31 | 52.40689 | 21.71529 | 0° | 0km/h | 26889m | 0.0m/s | -57.2°C | 31.7% | 237.4hPa | 0V | 00:00:00 | 00:00:00 | 00:00:00 | |
| SP4MAZ | 2026-09-02 13:05:59 | 52.40689 | 21.71529 | 0° | 0km/h | 26889m | 0.0m/s | -55.4°C | 5.5% | 208.2hPa | 0V | 00:00:00 | 00:00:00 | 00:00:00 | |
| SP4MAZ | 2026-09-02 13:05:34 | 52.40689 | 21.71529 | 0° | 0km/h | 26889m | 0.0m/s | -51.4°C | 2.0% | 186.1hPa | 0V | 00:00:00 | 00:00:00 | 00:00:00 | |
| SP4MAZ | 2026-09-02 13:05:03 | 52.40689 | 21.71529 | 0° | 0km/h | 26889m | 0.0m/s | -49.3°C | 1.3% | 161.7hPa | 0V | 00:00:00 | 00:00:00 | 00:00:00 | |
| SP4MAZ | 2026-09-02 13:04:39 | 52.40689 | 21.71529 | 0° | 0km/h | 26889m | 0.0m/s | -48.1°C | 1.1% | 143.2hPa | 0V | 00:00:00 | 00:00:00 | 00:00:00 | |
| SP4MAZ | 2026-09-02 13:04:03 | 52.40689 | 21.71529 | 0° | 0km/h | 26889m | 0.0m/s | -49.7°C | 1.1% | 117.1hPa | 0V | 00:00:00 | 00:00:00 | 00:00:00 | |
| SP4MAZ | 2026-09-02 13:03:40 | 52.40689 | 21.71529 | 0° | 0km/h | 26889m | 0.0m/s | -50.5°C | 1.1% | 104.4hPa | 0V | 00:00:00 | 00:00:00 | 00:00:00 | |
| SP4MAZ | 2026-09-02 13:03:19 | 52.40689 | 21.71529 | 0° | 0km/h | 26889m | 0.0m/s | -49.7°C | 1.0% | 92.7hPa | 0V | 00:00:00 | 00:00:00 | 00:00:00 | |
| SP4MAZ | 2026-09-02 13:02:59 | 52.40689 | 21.71529 | 0° | 0km/h | 26889m | 0.0m/s | -49.3°C | 0.9% | 81.9hPa | 0V | 00:00:00 | 00:00:00 | 00:00:00 | |
| SP4MAZ | 2026-09-02 13:02:28 | 52.40689 | 21.71529 | 0° | 0km/h | 26889m | 0.0m/s | -52.1°C | 1.1% | 67.5hPa | 0V | 00:00:00 | 00:00:00 | 00:00:00 | |
| SP4MAZ | 2026-09-02 13:01:45 | 52.40689 | 21.71529 | 0° | 0km/h | 26889m | 0.0m/s | -50.7°C | 0.9% | 48.5hPa | 0V | 00:00:00 | 00:00:00 | 00:00:00 | |
| SP4MAZ | 2026-09-02 13:01:21 | 52.40689 | 21.71529 | 0° | 0km/h | 26889m | 0.0m/s | -50.3°C | 0.9% | 41.1hPa | 0V | 08:21:00 | 00:00:00 | 00:00:00 | |
| SP4MAZ | 2026-09-02 13:00:38 | 52.40689 | 21.71529 | 0° | 0km/h | 26889m | 0.0m/s | -48.7°C | 0.8% | 28.0hPa | 0V | 08:21:00 | 00:00:00 | 00:00:00 | |
| SP4MAZ | 2026-09-02 13:00:17 | 52.40689 | 21.71529 | 0° | 0km/h | 26889m | 0.0m/s | -46.5°C | 0.7% | 23.0hPa | 0V | 00:00:00 | 00:00:00 | 00:00:00 | |
| OM5KV | 2026-09-02 12:59:49 | 52.40689 | 21.71529 | 0° | 0km/h | 26889m | 0.0m/s | -41.4°C | 0.5% | 16.0hPa | 0V | 00:00:00 | 00:00:00 | 00:00:00 | |
| SP4MAZ | 2026-09-02 12:59:39 | 52.40689 | 21.71529 | 0° | 0km/h | 26889m | 0.0m/s | -40.0°C | 0.5% | 13.9hPa | 0V | 00:00:00 | 00:00:00 | 00:00:00 | |
| OM5KV | 2026-09-02 12:59:20 | 52.40689 | 21.71529 | 0° | 0km/h | 26889m | 0.0m/s | -35.9°C | 0.4% | 10.6hPa | 0V | 08:22:00 | 00:00:00 | 00:00:00 | |
| OM5KV | 2026-09-02 12:59:18 | 52.40689 | 21.71529 | 0° | 0km/h | 26889m | 0.0m/s | -35.7°C | 0.4% | 10.2hPa | 0V | 08:22:00 | 00:00:00 | 00:00:00 | |
| OM5KV | 2026-09-02 12:59:13 | 52.40689 | 21.71529 | 0° | 0km/h | 26889m | 0.0m/s | -34.8°C | 0.4% | 10.2hPa | 0V | 08:22:00 | 00:00:00 | 00:00:00 | |
| OM5KV | 2026-09-02 12:59:06 | 52.40689 | 21.71529 | 0° | 0km/h | 26889m | 0.0m/s | -32.6°C | 0.3% | 8.4hPa | 0V | 08:22:00 | 00:00:00 | 00:00:00 | |
| OM5KV | 2026-09-02 12:59:01 | 52.40689 | 21.71529 | 0° | 0km/h | 26889m | 0.0m/s | -32.5°C | 0.3% | 7.9hPa | 0V | 08:22:00 | 00:00:00 | 00:00:00 | |
| OM5KV | 2026-09-02 12:59:00 | 52.40689 | 21.71529 | 0° | 0km/h | 26889m | 0.0m/s | -32.7°C | 0.3% | 8.4hPa | 0V | 08:22:00 | 00:00:00 | 00:00:00 | |
| OM5KV | 2026-09-02 12:58:55 | 52.40689 | 21.71529 | 0° | 0km/h | 26889m | 0.0m/s | -32.1°C | 0.3% | 7.8hPa | 0V | 08:22:00 | 00:00:00 | 00:00:00 | |
| OM5KV | 2026-09-02 12:58:54 | 52.40689 | 21.71529 | 0° | 0km/h | 26889m | 0.0m/s | -32.1°C | 0.3% | 7.4hPa | 0V | 08:22:00 | 00:00:00 | 00:00:00 | |
| OM5KV | 2026-09-02 12:58:48 | 52.40689 | 21.71529 | 0° | 0km/h | 26889m | 0.0m/s | -32.6°C | 0.3% | 7.1hPa | 0V | 08:23:00 | 00:00:00 | 00:00:00 | |
| OM5KV | 2026-09-02 12:58:44 | 52.40689 | 21.71529 | 0° | 0km/h | 26889m | 0.0m/s | -33.1°C | 0.3% | 7.1hPa | 0V | 08:23:00 | 00:00:00 | 00:00:00 | |
| OM5KV | 2026-09-02 12:58:37 | 52.40689 | 21.71529 | 0° | 0km/h | 26889m | 0.0m/s | -33.1°C | 0.3% | 7.0hPa | 0V | 08:23:00 | 00:00:00 | 00:00:00 | |
| OM5KV | 2026-09-02 12:58:34 | 52.40689 | 21.71529 | 0° | 0km/h | 26889m | 0.0m/s | -33.4°C | 0.3% | 7.0hPa | 0V | 08:23:00 | 00:00:00 | 00:00:00 | |
| OM5KV | 2026-09-02 12:58:32 | 52.40689 | 21.71529 | 0° | 0km/h | 26889m | 0.0m/s | -33.4°C | 0.3% | 7.1hPa | 0V | 08:23:00 | 00:00:00 | 00:00:00 | |
| OM5KV | 2026-09-02 12:58:26 | 52.40689 | 21.71529 | 0° | 0km/h | 26889m | 0.0m/s | -33.4°C | 0.3% | 7.1hPa | 0V | 08:23:00 | 00:00:00 | 00:00:00 | |
| OM5KV | 2026-09-02 12:58:20 | 52.40689 | 21.71529 | 0° | 0km/h | 26889m | 0.0m/s | -33.4°C | 0.3% | 7.1hPa | 0V | 08:23:00 | 00:00:00 | 00:00:00 | |
| OM5KV | 2026-09-02 12:58:17 | 52.40689 | 21.71529 | 0° | 0km/h | 26889m | 0.0m/s | -33.3°C | 0.3% | 7.2hPa | 0V | 08:23:00 | 00:00:00 | 00:00:00 | |
| OM5KV | 2026-09-02 12:58:15 | 52.40689 | 21.71529 | 0° | 0km/h | 26889m | 0.0m/s | -33.4°C | 0.3% | 7.2hPa | 0V | 08:23:00 | 00:00:00 | 00:00:00 | |
| OM5KV | 2026-09-02 12:58:12 | 52.40689 | 21.71529 | 0° | 0km/h | 26889m | 0.0m/s | -33.2°C | 0.3% | 7.2hPa | 0V | 08:23:00 | 00:00:00 | 00:00:00 | |
| OM5KV | 2026-09-02 12:58:02 | 52.40689 | 21.71529 | 0° | 0km/h | 26889m | 0.0m/s | -33.3°C | 0% | 7.2hPa | 0V | 08:23:00 | 00:00:00 | 00:00:00 | |
| OM5KV | 2026-09-02 12:57:57 | 52.40689 | 21.71529 | 0° | 0km/h | 26889m | 0.0m/s | -33.5°C | 0% | 7.3hPa | 0V | 08:24:00 | 00:00:00 | 00:00:00 | |
| OM5KV | 2026-09-02 12:57:55 | 52.40689 | 21.71529 | 0° | 0km/h | 26889m | 0.0m/s | -33.5°C | 0.3% | 7.3hPa | 0V | 08:24:00 | 00:00:00 | 00:00:00 | |
| OM5KV | 2026-09-02 12:57:51 | 52.40689 | 21.71529 | 0° | 0km/h | 26889m | 0.0m/s | -33.5°C | 0% | 7.3hPa | 0V | 08:24:00 | 00:00:00 | 00:00:00 | |
| OM5KV | 2026-09-02 12:57:48 | 52.40689 | 21.71529 | 0° | 0km/h | 26889m | 0.0m/s | -33.4°C | 0% | 7.4hPa | 0V | 08:24:00 | 00:00:00 | 00:00:00 | |
| OM5KV | 2026-09-02 12:57:45 | 52.40689 | 21.71529 | 0° | 0km/h | 26889m | 0.0m/s | -33.6°C | 0% | 7.4hPa | 0V | 08:24:00 | 00:00:00 | 00:00:00 | |
| OM5KV | 2026-09-02 12:57:38 | 52.40689 | 21.71529 | 0° | 0km/h | 26889m | 0.0m/s | -33.6°C | 0% | 7.4hPa | 0V | 08:24:00 | 00:00:00 | 00:00:00 | |
| OM5KV | 2026-09-02 12:57:37 | 52.40689 | 21.71529 | 0° | 0km/h | 26889m | 0.0m/s | -33.7°C | 0% | 7.4hPa | 0V | 08:24:00 | 00:00:00 | 00:00:00 | |
| OM5KV | 2026-09-02 12:57:29 | 52.40689 | 21.71529 | 0° | 0km/h | 26889m | 0.0m/s | -33.9°C | 0% | 7.5hPa | 0V | 08:24:00 | 00:00:00 | 00:00:00 | |
| OM5KV | 2026-09-02 12:57:25 | 52.40689 | 21.71529 | 0° | 0km/h | 26889m | 0.0m/s | -33.8°C | 0.3% | 7.5hPa | 0V | 00:00:00 | 00:00:00 | 00:00:00 | |
| OM5KV | 2026-09-02 12:57:23 | 52.40689 | 21.71529 | 0° | 0km/h | 26889m | 0.0m/s | -33.9°C | 0% | 7.6hPa | 0V | 08:24:00 | 00:00:00 | 00:00:00 | |
| OM5KV | 2026-09-02 12:57:19 | 52.40689 | 21.71529 | 0° | 0km/h | 26889m | 0.0m/s | -34.0°C | 0.3% | 7.6hPa | 0V | 00:00:00 | 00:00:00 | 00:00:00 | |
| OM5KV | 2026-09-02 12:57:13 | 52.40689 | 21.71529 | 0° | 0km/h | 26889m | 0.0m/s | -33.9°C | 0.3% | 7.6hPa | 0V | 00:00:00 | 00:00:00 | 00:00:00 | |
| OM5KV | 2026-09-02 12:57:07 | 52.40689 | 21.71529 | 0° | 0km/h | 26889m | 0.0m/s | -33.9°C | 0.3% | 7.7hPa | 0V | 00:00:00 | 00:00:00 | 00:00:00 | |
| OM5KV | 2026-09-02 12:57:06 | 52.40689 | 21.71529 | 0° | 0km/h | 26889m | 0.0m/s | -33.9°C | 0% | 7.6hPa | 0V | 08:24:00 | 00:00:00 | 00:00:00 | |
| OM5KV | 2026-09-02 12:56:51 | 52.40689 | 21.71529 | 0° | 0km/h | 26889m | 0.0m/s | -34.4°C | 0% | 7.8hPa | 0V | 00:00:00 | 00:00:00 | 00:00:00 | |
| OM5KV | 2026-09-02 12:56:45 | 52.40689 | 21.71529 | 0° | 0km/h | 26889m | 0.0m/s | -34.2°C | 0% | 7.8hPa | 0V | 00:00:00 | 00:00:00 | 00:00:00 | |
| OM5KV | 2026-09-02 12:56:42 | 52.40689 | 21.71529 | 0° | 0km/h | 26889m | 0.0m/s | -34.4°C | 0% | 0hPa | 0V | 08:25:00 | 00:00:00 | 00:00:00 | |
| OM5KV | 2026-09-02 12:56:40 | 52.40689 | 21.71529 | 0° | 0km/h | 26889m | 0.0m/s | -34.6°C | 0% | 7.9hPa | 0V | 00:00:00 | 00:00:00 | 00:00:00 | |
| OM5KV | 2026-09-02 12:56:38 | 52.40689 | 21.71529 | 0° | 0km/h | 26889m | 0.0m/s | -34.7°C | 0% | 7.9hPa | 0V | 00:00:00 | 00:00:00 | 00:00:00 | |
| OM5KV | 2026-09-02 12:56:37 | 52.40689 | 21.71529 | 0° | 0km/h | 26889m | 0.0m/s | -34.7°C | 0% | 0hPa | 0V | 08:25:00 | 00:00:00 | 00:00:00 | |
| OM5KV | 2026-09-02 12:56:34 | 52.40689 | 21.71529 | 0° | 0km/h | 26889m | 0.0m/s | -35.0°C | 0% | 7.9hPa | 0V | 00:00:00 | 00:00:00 | 00:00:00 | |
| OM5KV | 2026-09-02 12:56:32 | 52.40689 | 21.71529 | 0° | 0km/h | 26889m | 0.0m/s | -35.0°C | 0% | 7.9hPa | 0V | 00:00:00 | 00:00:00 | 00:00:00 | |
| OM5KV | 2026-09-02 12:56:31 | 52.40689 | 21.71529 | 0° | 0km/h | 26889m | 0.0m/s | -35.0°C | 0% | 0hPa | 0V | 08:25:00 | 00:00:00 | 00:00:00 | |
| OM5KV | 2026-09-02 12:56:27 | 52.40689 | 21.71529 | 0° | 0km/h | 26889m | 0.0m/s | -35.0°C | 0% | 7.9hPa | 0V | 00:00:00 | 00:00:00 | 00:00:00 | |
| OM5KV | 2026-09-02 12:56:25 | 52.40689 | 21.71529 | 0° | 0km/h | 26889m | 0.0m/s | -35.0°C | 0% | 0hPa | 0V | 08:25:00 | 00:00:00 | 00:00:00 | |
| OM5KV | 2026-09-02 12:56:21 | 52.40689 | 21.71529 | 0° | 0km/h | 26889m | 0.0m/s | -35.2°C | 0% | 8.0hPa | 0V | 00:00:00 | 00:00:00 | 00:00:00 | |
| OM5KV | 2026-09-02 12:56:15 | 52.40689 | 21.71529 | 0° | 0km/h | 26889m | 0.0m/s | -35.3°C | 0% | 8.0hPa | 0V | 00:00:00 | 00:00:00 | 00:00:00 | |
| OM5KV | 2026-09-02 12:56:13 | 52.40689 | 21.71529 | 0° | 0km/h | 26889m | 0.0m/s | -35.4°C | 0% | 0hPa | 0V | 08:25:00 | 00:00:00 | 00:00:00 | |
| OM5KV | 2026-09-02 12:56:08 | 52.40689 | 21.71529 | 0° | 0km/h | 26889m | 0.0m/s | -35.6°C | 0% | 8.1hPa | 0V | 08:26:00 | 00:00:00 | 00:00:00 | |
| OM5KV | 2026-09-02 12:55:54 | 52.40689 | 21.71529 | 0° | 0km/h | 26889m | 0.0m/s | -35.6°C | 0% | 0hPa | 0V | 08:26:00 | 00:00:00 | 00:00:00 | |
| OM5KV | 2026-09-02 12:55:51 | 52.40689 | 21.71529 | 0° | 0km/h | 26889m | 0.0m/s | -35.8°C | 0% | 8.3hPa | 0V | 08:26:00 | 00:00:00 | 00:00:00 | |
| OM5KV | 2026-09-02 12:55:49 | 52.40689 | 21.71529 | 0° | 0km/h | 26889m | 0.0m/s | -35.8°C | 0% | 0hPa | 0V | 08:26:00 | 00:00:00 | 00:00:00 | |
| OM5KV | 2026-09-02 12:55:43 | 52.40689 | 21.71529 | 0° | 0km/h | 26889m | 0.0m/s | -36.0°C | 0% | 8.3hPa | 0V | 08:26:00 | 00:00:00 | 00:00:00 | |
| OM5KV | 2026-09-02 12:55:39 | 52.40689 | 21.71529 | 0° | 0km/h | 26889m | 0.0m/s | -36.0°C | 0% | 0hPa | 0V | 08:26:00 | 00:00:00 | 00:00:00 | |
| OM5KV | 2026-09-02 12:55:37 | 52.40689 | 21.71529 | 0° | 0km/h | 26889m | 0.0m/s | -36.1°C | 0% | 8.3hPa | 0V | 08:26:00 | 00:00:00 | 00:00:00 | |
| OM5KV | 2026-09-02 12:55:31 | 52.40689 | 21.71529 | 0° | 0km/h | 26889m | 0.0m/s | -36.5°C | 0% | 8.4hPa | 0V | 00:00:00 | 00:00:00 | 00:00:00 | |
| OM5KV | 2026-09-02 12:55:30 | 52.40689 | 21.71529 | 0° | 0km/h | 26889m | 0.0m/s | -36.5°C | 0% | 0hPa | 0V | 08:26:00 | 00:00:00 | 00:00:00 | |
| OM5KV | 2026-09-02 12:55:24 | 52.40689 | 21.71529 | 0° | 0km/h | 26889m | 0.0m/s | -36.5°C | 0% | 8.4hPa | 0V | 08:26:00 | 00:00:00 | 00:00:00 | |
| OM5KV | 2026-09-02 12:55:22 | 52.40689 | 21.71529 | 0° | 0km/h | 26889m | 0.0m/s | -36.5°C | 0% | 8.5hPa | 0V | 08:26:00 | 00:00:00 | 00:00:00 | |
| OM5KV | 2026-09-02 12:55:21 | 52.40689 | 21.71529 | 0° | 0km/h | 26889m | 0.0m/s | -36.5°C | 0% | 0hPa | 0V | 08:26:00 | 00:00:00 | 00:00:00 | |
| OM5KV | 2026-09-02 12:55:18 | 52.40689 | 21.71529 | 0° | 0km/h | 26889m | 0.0m/s | -36.6°C | 0% | 8.5hPa | 0V | 08:27:00 | 00:00:00 | 00:00:00 | |
| OM5KV | 2026-09-02 12:55:13 | 52.40689 | 21.71529 | 0° | 0km/h | 26889m | 0.0m/s | -36.7°C | 0% | 0hPa | 0V | 08:27:00 | 00:00:00 | 00:00:00 | |
| OM5KV | 2026-09-02 12:55:12 | 52.40689 | 21.71529 | 0° | 0km/h | 26889m | 0.0m/s | -36.8°C | 0% | 8.5hPa | 0V | 08:27:00 | 00:00:00 | 00:00:00 | |
| OM5KV | 2026-09-02 12:55:07 | 52.40689 | 21.71529 | 0° | 0km/h | 26889m | 0.0m/s | -36.9°C | 0% | 0hPa | 0V | 08:27:00 | 00:00:00 | 00:00:00 | |
| OM5KV | 2026-09-02 12:55:01 | 52.40689 | 21.71529 | 0° | 0km/h | 26889m | 0.0m/s | -36.8°C | 0% | 0hPa | 0V | 08:27:00 | 00:00:00 | 00:00:00 | |
| OM5KV | 2026-09-02 12:54:56 | 52.40689 | 21.71529 | 0° | 0km/h | 26889m | 0.0m/s | -37.0°C | 0% | 0hPa | 0V | 08:27:00 | 00:00:00 | 00:00:00 | |
| OM5KV | 2026-09-02 12:54:48 | 52.40689 | 21.71529 | 0° | 0km/h | 26889m | 0.0m/s | -37.2°C | 0% | 0hPa | 0V | 08:27:00 | 00:00:00 | 00:00:00 | |
| OM5KV | 2026-09-02 12:54:42 | 52.40689 | 21.71529 | 0° | 0km/h | 26889m | 0.0m/s | -37.3°C | 0% | 0hPa | 0V | 08:27:00 | 00:00:00 | 00:00:00 | |
| OM5KV | 2026-09-02 12:54:41 | 52.40689 | 21.71529 | 0° | 0km/h | 26889m | 0.0m/s | -37.3°C | 0% | 0hPa | 0V | 08:27:00 | 00:00:00 | 00:00:00 | |
| OM5KV | 2026-09-02 12:54:35 | 52.40689 | 21.71529 | 0° | 0km/h | 26889m | 0.0m/s | -37.4°C | 0% | 0hPa | 0V | 08:27:00 | 00:00:00 | 00:00:00 | |
| OM5KV | 2026-09-02 12:54:33 | 52.40689 | 21.71529 | 0° | 0km/h | 26889m | 0.0m/s | 0°C | 0% | 8.9hPa | 0V | 08:27:00 | 00:00:00 | 00:00:00 | |
| OM5KV | 2026-09-02 12:54:29 | 52.40689 | 21.71529 | 0° | 0km/h | 26889m | 0.0m/s | -37.6°C | 0% | 0hPa | 0V | 08:27:00 | 00:00:00 | 00:00:00 | |
| OM5KV | 2026-09-02 12:54:24 | 52.40689 | 21.71529 | 0° | 0km/h | 26889m | 0.0m/s | 0°C | 0% | 8.9hPa | 0V | 00:00:00 | 00:00:00 | 00:00:00 | |
| OM5KV | 2026-09-02 12:54:21 | 52.40689 | 21.71529 | 0° | 0km/h | 26889m | 0.0m/s | -37.8°C | 0% | 0hPa | 0V | 00:00:00 | 00:00:00 | 00:00:00 | |
| OM5KV | 2026-09-02 12:54:18 | 52.40689 | 21.71529 | 0° | 0km/h | 26889m | 0.0m/s | 0°C | 0% | 0hPa | 0V | 00:00:00 | 00:00:00 | 00:00:00 | |
| OM5KV | 2026-09-02 12:54:16 | 52.40689 | 21.71529 | 0° | 0km/h | 26889m | 0.0m/s | -37.9°C | 0% | 0hPa | 0V | 00:00:00 | 00:00:00 | 00:00:00 | |
| OM5KV | 2026-09-02 12:53:42 | 52.40689 | 21.71529 | 0° | 0km/h | 26889m | 0.0m/s | 0°C | 0% | 0hPa | 0V | 00:00:00 | 00:00:00 | 00:00:00 | |
| OM5KV | 2026-09-02 12:53:41 | 52.40689 | 21.71529 | 0° | 0km/h | 26889m | 0.0m/s | 0°C | 0% | 0hPa | 0V | 00:00:00 | 00:00:00 | 00:00:00 | |
| OM5KV | 2026-09-02 12:53:31 | 52.40689 | 21.71529 | 0° | 0km/h | 26889m | 0.0m/s | 0°C | 0% | 0hPa | 0V | 00:00:00 | 00:00:00 | 00:00:00 | |
| OM5KV | 2026-09-02 12:53:26 | 52.40689 | 21.71529 | 0° | 0km/h | 26889m | 0.0m/s | 0°C | 0% | 0hPa | 0V | 00:00:00 | 00:00:00 | 00:00:00 | |
| OM5KV | 2026-09-02 12:53:22 | 52.40689 | 21.71529 | 0° | 0km/h | 26889m | 0.0m/s | 0°C | 0% | 0hPa | 0V | 00:00:00 | 00:00:00 | 00:00:00 | |
| OM5KV | 2026-09-02 12:53:17 | 52.40689 | 21.71529 | 0° | 0km/h | 26889m | 0.0m/s | 0°C | 0% | 0hPa | 0V | 00:00:00 | 00:00:00 | 00:00:00 | |
| OM5KV | 2026-09-02 12:53:04 | 52.40689 | 21.71529 | 0° | 0km/h | 26889m | 0.0m/s | 0°C | 0% | 0hPa | 0V | 00:00:00 | 00:00:00 | 00:00:00 | |
| OM5KV | 2026-09-02 12:52:56 | 52.39795 | 21.71662 | 5° | 502km/h | 21224m | -297.6m/s | 0°C | 0% | 0hPa | 0V | 00:00:00 | 00:00:00 | 00:00:00 | |
| OM5KV | 2026-09-02 12:52:54 | 52.39795 | 21.71662 | 5° | 502km/h | 21224m | -297.6m/s | 0°C | 0% | 0hPa | 0V | 00:00:00 | 00:00:00 | 00:00:00 | |
| OM5KV | 2026-09-02 12:52:22 | 52.39795 | 21.71662 | 5° | 502km/h | 21224m | -297.6m/s | 0°C | 0% | 0hPa | 0V | 00:00:00 | 00:00:00 | 00:00:00 | |
| OM5KV | 2026-09-02 12:52:19 | 52.39795 | 21.71662 | 5° | 502km/h | 21224m | -297.6m/s | 0°C | 0% | 0hPa | 0V | 00:00:00 | 00:00:00 | 00:00:00 | |
| SP4MAZ | 2026-09-02 11:44:23 | 52.39635 | 21.21948 | 87° | 57km/h | 8594m | 3.4m/s | -37.4°C | 0% | 336.5hPa | 0V | 00:00:00 | 00:00:00 | 00:00:00 | |
| SP4MAZ | 2026-09-02 11:44:02 | 52.39614 | 21.21647 | 65° | 42km/h | 8476m | 5.1m/s | -36.3°C | 0% | 342.1hPa | 0V | 00:00:00 | 00:00:00 | 00:00:00 | |
| SP4MAZ | 2026-09-02 11:39:47 | 52.39449 | 21.17365 | 127° | 24km/h | 7145m | 4.0m/s | 0°C | 0% | 0hPa | 0V | 00:00:00 | 00:00:00 | 00:00:00 | |
| SP4MAZ | 2026-09-02 11:38:34 | 52.39554 | 21.16338 | 101° | 53km/h | 6756m | 7.0m/s | 0°C | 0% | 0hPa | 0V | 00:00:00 | 00:00:00 | 00:00:00 | |
| SP4MAZ | 2026-09-02 11:38:15 | 52.39540 | 21.16023 | 82° | 53km/h | 6646m | 4.0m/s | 0°C | 0% | 0hPa | 0V | 00:00:00 | 00:00:00 | 00:00:00 | |
| SP4MAZ | 2026-09-02 11:37:53 | 52.39596 | 21.15661 | 79° | 33km/h | 6533m | 5.8m/s | 0°C | 0% | 0hPa | 0V | 00:00:00 | 00:00:00 | 00:00:00 | |
| SP4MAZ | 2026-09-02 11:37:32 | 52.39573 | 21.15297 | 108° | 53km/h | 6421m | 6.0m/s | 0°C | 0% | 0hPa | 0V | 00:00:00 | 00:00:00 | 00:00:00 | |
| SP4MAZ | 2026-09-02 11:37:09 | 52.39605 | 21.14883 | 107° | 64km/h | 6284m | 3.1m/s | 0°C | 0% | 0hPa | 0V | 00:00:00 | 00:00:00 | 00:00:00 | |
| SP4MAZ | 2026-09-02 11:36:49 | 52.39623 | 21.14475 | 73° | 49km/h | 6181m | 4.6m/s | 0°C | 0% | 0hPa | 0V | 00:00:00 | 00:00:00 | 00:00:00 | |
| SP4MAZ | 2026-09-02 11:36:18 | 52.39626 | 21.13835 | 106° | 68km/h | 6012m | 3.3m/s | 0°C | 0% | 0hPa | 0V | 00:00:00 | 00:00:00 | 00:00:00 | |
| SP4MAZ | 2026-09-02 11:35:58 | 52.39682 | 21.13494 | 103° | 27km/h | 5918m | 4.2m/s | 0°C | 0% | 0hPa | 0V | 00:00:00 | 00:00:00 | 00:00:00 | |
| SP4MAZ | 2026-09-02 11:35:36 | 52.39723 | 21.13150 | 116° | 33km/h | 5798m | 5.7m/s | 0°C | 0% | 0hPa | 0V | 00:00:00 | 00:00:00 | 00:00:00 | |
| SP4MAZ | 2026-09-02 11:35:17 | 52.39756 | 21.12913 | 78° | 46km/h | 5697m | 4.9m/s | 0°C | 0% | 0hPa | 0V | 00:00:00 | 00:00:00 | 00:00:00 | |
| SP4MAZ | 2026-09-02 11:34:45 | 52.39812 | 21.12353 | 90° | 38km/h | 5536m | 5.8m/s | 0°C | 0% | 0hPa | 0V | 00:00:00 | 00:00:00 | 00:00:00 | |
| SP4MAZ | 2026-09-02 11:34:23 | 52.39851 | 21.12053 | 100° | 57km/h | 5430m | 5.6m/s | 0°C | 0% | 0hPa | 0V | 00:00:00 | 00:00:00 | 00:00:00 | |
| SP4MAZ | 2026-09-02 11:33:49 | 52.39956 | 21.11391 | 136° | 33km/h | 5247m | 4.0m/s | 0°C | 0% | 0hPa | 0V | 00:00:00 | 00:00:00 | 00:00:00 | |
| SP4MAZ | 2026-09-02 11:33:28 | 52.40014 | 21.11042 | 104° | 53km/h | 5141m | 5.3m/s | 0°C | 0% | 0hPa | 0V | 00:00:00 | 00:00:00 | 00:00:00 | |
| SP4MAZ | 2026-09-02 11:33:07 | 52.40112 | 21.10701 | 126° | 44km/h | 5020m | 4.7m/s | 0°C | 0% | 0hPa | 0V | 00:00:00 | 00:00:00 | 00:00:00 | |
| SP4MAZ | 2026-09-02 11:32:44 | 52.40222 | 21.10339 | 117° | 38km/h | 4911m | 5.3m/s | 0°C | 0% | 0hPa | 0V | 00:00:00 | 00:00:00 | 00:00:00 |